Time;durP1;ratioP1;P1;durP2;ratioP2;P2;SDS_P1;SDS_P2;PMS_P1;PMS_P2;Temp;Humidity;BMP_temperature;BMP_pressure;BME280_temperature;BME280_humidity;BME280_pressure;Samples;Min_cycle;Max_cycle;Signal;HPM_P1;HPM_P2
2023/06/14 00:00:11;;;;;;;10.20;6.82;;;;;;;17.73;53.28;101290.47;4947420;29;20125;-83
2023/06/14 00:02:39;;;;;;;8.85;6.25;;;;;;;17.72;53.65;101302.47;4952003;28;20432;-84
2023/06/14 00:05:05;;;;;;;11.90;6.10;;;;;;;17.66;53.80;101291.16;4952971;28;20495;-83
2023/06/14 00:07:48;;;;;;;12.10;7.20;;;;;;;17.67;51.82;101292.88;4967369;28;20138;-83
2023/06/14 00:10:14;;;;;;;9.15;6.75;;;;;;;17.58;54.69;101305.66;4967491;28;20137;-83
2023/06/14 00:12:39;;;;;;;11.93;5.95;;;;;;;17.54;53.73;101298.69;4952073;28;20035;-83
2023/06/14 00:15:06;;;;;;;10.38;6.68;;;;;;;17.57;52.84;101291.00;4953148;28;20050;-83
2023/06/14 00:17:31;;;;;;;7.88;6.00;;;;;;;17.55;52.15;101294.94;4951274;29;20050;-83
2023/06/14 00:19:58;;;;;;;8.55;5.53;;;;;;;17.53;52.38;101305.19;4951559;28;20352;-83
2023/06/14 00:22:24;;;;;;;12.18;6.97;;;;;;;17.47;53.66;101303.91;4956713;28;20019;-83
2023/06/14 00:24:53;;;;;;;7.30;6.00;;;;;;;17.43;51.26;101312.59;4967812;28;20510;-83
2023/06/14 00:27:18;;;;;;;9.20;6.20;;;;;;;17.38;52.64;101306.66;4951884;28;20043;-84
2023/06/14 00:29:44;;;;;;;8.38;5.82;;;;;;;17.30;52.46;101305.50;4952258;29;20039;-83
2023/06/14 00:32:09;;;;;;;12.05;6.00;;;;;;;17.29;52.41;101308.38;4950846;29;20038;-83
2023/06/14 00:34:34;;;;;;;7.90;5.20;;;;;;;17.23;51.65;101311.72;4951545;29;20031;-83
2023/06/14 00:37:00;;;;;;;7.85;5.47;;;;;;;17.17;52.64;101299.41;4952081;28;20047;-84
2023/06/14 00:39:26;;;;;;;9.15;5.82;;;;;;;17.14;51.20;101307.94;4951296;29;20047;-84
2023/06/14 00:41:51;;;;;;;9.23;5.18;;;;;;;17.16;52.08;101307.78;4950581;28;20471;-83
2023/06/14 00:44:17;;;;;;;8.40;5.72;;;;;;;17.13;51.86;101310.81;4950756;29;20069;-83
2023/06/14 00:46:45;;;;;;;9.60;5.60;;;;;;;17.00;51.87;101311.94;4952282;28;20139;-83
2023/06/14 00:49:12;;;;;;;9.85;6.10;;;;;;;16.94;51.18;101304.28;4935392;29;20039;-83
2023/06/14 00:51:39;;;;;;;9.65;5.60;;;;;;;16.91;51.14;101314.69;4934828;29;20114;-84
2023/06/14 00:54:04;;;;;;;8.98;5.60;;;;;;;16.85;51.61;101315.25;4950381;28;20142;-83
2023/06/14 00:56:30;;;;;;;8.35;5.20;;;;;;;16.82;51.66;101311.75;4950671;28;20046;-83
2023/06/14 00:58:56;;;;;;;10.05;5.53;;;;;;;16.76;51.22;101305.97;4964998;28;20498;-84
2023/06/14 01:01:23;;;;;;;7.75;5.63;;;;;;;16.78;50.84;101318.53;4951342;28;20042;-83
2023/06/14 01:03:50;;;;;;;9.23;4.75;;;;;;;16.65;51.01;101309.66;4934433;29;20154;-83
2023/06/14 01:06:30;;;;;;;9.82;5.22;;;;;;;16.62;51.49;101307.19;4951809;28;20582;-83
2023/06/14 01:09:08;;;;;;;9.15;4.72;;;;;;;16.59;51.59;101304.69;4950492;29;20039;-83
2023/06/14 01:11:46;;;;;;;11.25;5.15;;;;;;;16.57;51.39;101307.59;4949852;29;20062;-83
2023/06/14 01:14:14;;;;;;;10.15;4.80;;;;;;;16.61;51.12;101316.44;4950001;29;20043;-83
2023/06/14 01:16:40;;;;;;;8.95;5.00;;;;;;;16.55;51.08;101306.88;4931227;29;20123;-82
2023/06/14 01:19:08;;;;;;;8.40;4.97;;;;;;;16.48;51.59;101310.31;4931870;29;20466;-83
2023/06/14 01:21:41;;;;;;;10.38;5.00;;;;;;;16.45;50.77;101311.44;4933654;29;20908;-83
2023/06/14 01:24:08;;;;;;;7.55;4.57;;;;;;;16.42;51.72;101306.25;4950876;29;20039;-83
2023/06/14 01:26:37;;;;;;;12.38;4.47;;;;;;;16.40;51.78;101332.09;4950211;28;20157;-83
2023/06/14 01:29:03;;;;;;;7.22;4.40;;;;;;;16.35;51.82;101313.28;4949766;29;20511;-83
2023/06/14 01:31:29;;;;;;;9.10;4.95;;;;;;;16.36;52.27;101319.63;4933897;29;20027;-83
2023/06/14 01:33:54;;;;;;;6.55;4.90;;;;;;;16.27;51.78;101313.97;4951781;28;20046;-83
2023/06/14 01:36:26;;;;;;;9.13;5.32;;;;;;;16.25;52.04;101323.34;4951207;28;20050;-83
2023/06/14 01:38:52;;;;;;;8.55;4.97;;;;;;;16.20;52.10;101321.00;4950012;29;20410;-83
2023/06/14 01:41:21;;;;;;;7.72;4.53;;;;;;;16.08;51.68;101322.09;4965552;28;20103;-83
2023/06/14 01:43:48;;;;;;;7.05;4.57;;;;;;;16.05;51.63;101325.13;4951021;28;20047;-83
2023/06/14 01:46:15;;;;;;;7.70;4.78;;;;;;;16.00;52.23;101328.28;4955466;28;20034;-83
2023/06/14 01:48:40;;;;;;;6.65;4.88;;;;;;;15.95;52.63;101318.72;4951505;28;20050;-83
2023/06/14 01:51:06;;;;;;;8.77;4.45;;;;;;;15.95;52.84;101318.72;4950589;29;20031;-83
2023/06/14 01:53:31;;;;;;;6.70;4.38;;;;;;;15.93;52.92;101306.97;4949384;29;20058;-83
2023/06/14 01:55:56;;;;;;;6.43;4.35;;;;;;;15.89;53.71;101311.84;4949301;29;20043;-83
2023/06/14 01:58:23;;;;;;;7.15;4.45;;;;;;;15.89;53.61;101308.25;4948840;29;20114;-83
2023/06/14 02:00:49;;;;;;;9.00;4.88;;;;;;;15.83;53.97;101315.13;4960615;28;20106;-83
2023/06/14 02:03:15;;;;;;;8.30;4.45;;;;;;;15.80;54.69;101318.13;4947932;28;20496;-83
2023/06/14 02:05:40;;;;;;;6.45;4.53;;;;;;;15.76;54.88;101317.56;4950834;28;20051;-83
2023/06/14 02:08:07;;;;;;;6.85;4.90;;;;;;;15.70;54.68;101322.69;4949509;28;20391;-83
2023/06/14 02:10:32;;;;;;;10.35;4.60;;;;;;;15.63;54.36;101314.09;4960786;28;20066;-82
2023/06/14 02:12:57;;;;;;;12.25;4.60;;;;;;;15.59;53.51;101315.38;4942443;28;20035;-82
2023/06/14 02:15:23;;;;;;;7.75;4.43;;;;;;;15.58;53.51;101319.13;4936667;28;20039;-83
2023/06/14 02:17:51;;;;;;;8.85;5.05;;;;;;;15.51;53.07;101316.00;4929541;29;20043;-83
2023/06/14 02:20:17;;;;;;;6.97;4.68;;;;;;;15.47;53.74;101314.53;4955832;28;20062;-83
2023/06/14 02:22:42;;;;;;;7.88;4.82;;;;;;;15.40;53.34;101312.47;4963224;28;20023;-83
2023/06/14 02:25:08;;;;;;;11.00;4.72;;;;;;;15.41;53.60;101317.81;4946884;28;20039;-82
2023/06/14 02:27:34;;;;;;;8.75;4.40;;;;;;;15.40;53.00;101318.81;4962671;28;20098;-82
2023/06/14 02:30:00;;;;;;;6.25;4.15;;;;;;;15.28;54.96;101319.84;4943869;28;20336;-83
2023/06/14 02:32:27;;;;;;;6.57;4.03;;;;;;;15.27;53.69;101313.50;4948064;28;20434;-83
2023/06/14 02:34:53;;;;;;;8.10;4.57;;;;;;;15.28;53.65;101320.72;4945674;28;20142;-83
2023/06/14 02:37:19;;;;;;;11.57;4.57;;;;;;;15.26;54.55;101328.22;4947961;28;20027;-83
2023/06/14 02:39:45;;;;;;;10.40;4.82;;;;;;;15.19;54.04;101318.75;4943601;28;20034;-82
2023/06/14 02:42:10;;;;;;;6.65;3.90;;;;;;;15.15;53.38;101322.75;4944239;28;20166;-82
2023/06/14 02:44:36;;;;;;;6.65;4.35;;;;;;;15.17;53.62;101328.97;4948663;28;20059;-83
2023/06/14 02:47:02;;;;;;;12.25;4.80;;;;;;;15.14;53.83;101333.84;4962871;28;20047;-83
2023/06/14 02:49:28;;;;;;;8.15;4.53;;;;;;;15.15;53.52;101330.97;4931818;29;20039;-83
2023/06/14 02:51:54;;;;;;;7.07;4.28;;;;;;;15.12;53.58;101331.25;4946173;28;20035;-83
2023/06/14 02:54:19;;;;;;;7.85;4.15;;;;;;;15.03;55.54;101337.50;4947084;28;20126;-82
2023/06/14 02:56:45;;;;;;;6.70;4.35;;;;;;;15.05;54.42;101327.25;4956912;28;20040;-83
2023/06/14 02:59:10;;;;;;;7.72;3.47;;;;;;;15.08;54.62;101334.38;4941350;28;20069;-82
2023/06/14 03:01:40;;;;;;;5.50;4.30;;;;;;;15.03;54.41;101332.00;4959832;28;20103;-83
2023/06/14 03:04:07;;;;;;;9.25;4.20;;;;;;;14.98;55.29;101329.66;4951469;28;20491;-83
2023/06/14 03:06:36;;;;;;;6.55;3.80;;;;;;;14.96;55.12;101334.38;4946596;28;20452;-82
2023/06/14 03:09:07;;;;;;;6.80;4.00;;;;;;;14.90;55.43;101334.91;4961138;28;20058;-83
2023/06/14 03:11:35;;;;;;;9.95;4.45;;;;;;;14.91;54.03;101333.88;4956000;28;20426;-83
2023/06/14 03:14:03;;;;;;;8.98;3.92;;;;;;;14.90;55.17;101347.72;4945500;28;20027;-82
2023/06/14 03:16:29;;;;;;;9.85;4.53;;;;;;;14.86;55.98;101343.50;4945662;28;20043;-82
2023/06/14 03:18:55;;;;;;;6.65;3.92;;;;;;;14.86;54.87;101341.63;4947361;29;20491;-82
2023/06/14 03:21:23;;;;;;;9.85;4.55;;;;;;;14.81;54.84;101335.66;4956602;28;20396;-83
2023/06/14 03:23:49;;;;;;;5.97;4.03;;;;;;;14.75;55.81;101344.38;4962865;28;20527;-83
2023/06/14 03:26:17;;;;;;;7.68;4.38;;;;;;;14.65;55.99;101343.41;4957563;28;20048;-83
2023/06/14 03:28:45;;;;;;;7.65;4.20;;;;;;;14.69;55.57;101347.63;4959644;28;20439;-83
2023/06/14 03:31:11;;;;;;;7.78;3.60;;;;;;;14.71;55.77;101356.59;4943769;28;20522;-83
2023/06/14 03:33:37;;;;;;;7.35;3.83;;;;;;;14.70;55.52;101352.97;4916148;29;20055;-82
2023/06/14 03:36:03;;;;;;;8.23;4.10;;;;;;;14.71;56.28;101348.38;4962024;28;20115;-82
2023/06/14 03:38:28;;;;;;;11.73;4.35;;;;;;;14.68;56.42;101354.97;4958426;28;20047;-83
2023/06/14 03:40:54;;;;;;;5.85;4.13;;;;;;;14.67;56.59;101357.84;4937240;28;20039;-82
2023/06/14 03:43:19;;;;;;;8.20;3.90;;;;;;;14.53;58.62;101340.66;4965682;28;20139;-83
2023/06/14 03:45:45;;;;;;;8.63;4.03;;;;;;;14.55;58.48;101346.03;4946767;28;20100;-83
2023/06/14 03:48:11;;;;;;;6.13;4.25;;;;;;;14.56;60.62;101363.31;4949392;28;20379;-84
2023/06/14 03:50:37;;;;;;;7.22;4.03;;;;;;;14.54;59.95;101360.69;4965889;28;20066;-83
2023/06/14 03:53:03;;;;;;;6.40;4.03;;;;;;;14.58;58.72;101358.56;4964602;28;20054;-82
2023/06/14 03:55:31;;;;;;;10.10;3.78;;;;;;;14.58;57.51;101359.44;4956260;28;20139;-82
2023/06/14 03:57:57;;;;;;;7.25;4.30;;;;;;;14.52;60.72;101363.56;4955208;28;20043;-83
2023/06/14 04:00:24;;;;;;;7.30;4.03;;;;;;;14.54;60.06;101361.56;4965583;28;20443;-83
2023/06/14 04:02:49;;;;;;;6.97;4.18;;;;;;;14.54;58.84;101358.81;4944011;28;20046;-83
2023/06/14 04:05:16;;;;;;;6.65;4.10;;;;;;;14.55;58.21;101365.19;4947687;29;20050;-83
2023/06/14 04:07:45;;;;;;;9.15;4.22;;;;;;;14.60;60.35;101367.56;4965569;28;20152;-82
2023/06/14 04:10:14;;;;;;;6.90;4.18;;;;;;;14.59;58.32;101358.44;4966276;28;20060;-82
2023/06/14 04:12:39;;;;;;;7.32;4.13;;;;;;;14.65;58.76;101381.75;4948714;28;20337;-82
2023/06/14 04:15:06;;;;;;;9.82;5.38;;;;;;;14.65;59.85;101374.41;4951993;28;20058;-82
2023/06/14 04:17:35;;;;;;;9.23;4.03;;;;;;;14.60;58.83;101373.91;4947367;28;20085;-83
2023/06/14 04:20:05;;;;;;;13.00;4.95;;;;;;;14.61;58.36;101378.38;4949923;28;20050;-83
2023/06/14 04:22:33;;;;;;;7.43;4.32;;;;;;;14.66;57.56;101378.88;4946242;28;20041;-83
2023/06/14 04:24:59;;;;;;;9.95;4.50;;;;;;;14.70;58.22;101383.09;4942749;28;20218;-82
2023/06/14 04:27:27;;;;;;;6.78;4.35;;;;;;;14.69;58.47;101388.72;4921601;29;20043;-83
2023/06/14 04:29:56;;;;;;;7.93;4.53;;;;;;;14.71;59.17;101382.09;4953995;28;20087;-83
2023/06/14 04:32:25;;;;;;;8.40;3.95;;;;;;;14.74;59.68;101384.59;4950419;28;20098;-83
2023/06/14 04:34:53;;;;;;;6.57;4.45;;;;;;;14.82;59.06;101389.44;4942552;29;20099;-83
2023/06/14 04:37:24;;;;;;;10.65;4.25;;;;;;;14.80;59.11;101391.44;4965401;28;20035;-83
2023/06/14 04:39:51;;;;;;;9.77;4.70;;;;;;;14.79;60.54;101381.50;4933527;29;20043;-83
2023/06/14 04:42:20;;;;;;;7.22;4.65;;;;;;;14.84;59.14;101392.94;4960208;28;20027;-83
2023/06/14 04:44:47;;;;;;;10.10;4.53;;;;;;;14.93;59.18;101392.19;4962758;28;20043;-83
2023/06/14 04:47:14;;;;;;;7.97;4.63;;;;;;;14.95;59.42;101392.91;4960187;28;20035;-83
2023/06/14 04:49:41;;;;;;;11.10;4.50;;;;;;;14.95;60.41;101381.97;4965755;28;20565;-82
2023/06/14 04:52:07;;;;;;;13.55;4.63;;;;;;;15.06;57.93;101389.28;4964771;28;20166;-83
2023/06/14 04:54:44;;;;;;;11.07;4.43;;;;;;;15.05;59.41;101393.91;4948047;28;20424;-83
2023/06/14 04:57:17;;;;;;;8.13;4.47;;;;;;;15.09;60.73;101389.03;4957045;28;20031;-83
2023/06/14 04:59:44;;;;;;;8.43;4.13;;;;;;;15.15;59.31;101394.00;4933499;29;20031;-83
2023/06/14 05:02:11;;;;;;;6.55;4.15;;;;;;;15.20;59.69;101394.53;4952284;28;20077;-83
2023/06/14 05:04:39;;;;;;;9.35;4.32;;;;;;;15.25;60.29;101402.38;4951453;28;20483;-82
2023/06/14 05:07:09;;;;;;;29.45;5.45;;;;;;;15.30;60.73;101400.09;4950173;29;20174;-83
2023/06/14 05:09:35;;;;;;;178.85;16.17;;;;;;;15.35;59.95;101400.59;4965284;28;20046;-83
2023/06/14 05:12:01;;;;;;;244.07;20.35;;;;;;;15.40;60.44;101403.81;4950833;28;20043;-82
2023/06/14 05:14:27;;;;;;;100.50;10.07;;;;;;;15.41;61.12;101399.19;4951502;28;20436;-83
2023/06/14 05:16:53;;;;;;;33.28;5.50;;;;;;;15.47;57.62;101402.28;4966365;28;20042;-83
2023/06/14 05:19:20;;;;;;;25.75;5.85;;;;;;;15.54;58.05;101399.91;4951838;28;20043;-83
2023/06/14 05:21:47;;;;;;;14.60;4.40;;;;;;;15.62;57.87;101404.72;4949794;28;20019;-83
2023/06/14 05:24:13;;;;;;;12.70;4.32;;;;;;;15.68;57.99;101410.63;4951736;28;20102;-82
2023/06/14 05:26:38;;;;;;;7.88;4.55;;;;;;;15.76;57.89;101408.09;4949567;28;20404;-83
2023/06/14 05:29:04;;;;;;;9.45;4.88;;;;;;;15.82;56.86;101407.56;4951245;29;20404;-83
2023/06/14 05:31:29;;;;;;;10.98;4.40;;;;;;;15.89;59.38;101413.38;4951388;28;20122;-83
2023/06/14 05:33:55;;;;;;;6.00;3.88;;;;;;;15.94;59.00;101413.00;4950281;29;20129;-83
2023/06/14 05:36:23;;;;;;;12.80;4.50;;;;;;;15.97;57.89;101404.50;4951646;28;20031;-83
2023/06/14 05:38:50;;;;;;;11.00;4.72;;;;;;;16.06;59.62;101418.31;4965964;28;20027;-83
2023/06/14 05:41:17;;;;;;;12.30;4.47;;;;;;;16.07;56.99;101420.03;4949270;28;20043;-83
2023/06/14 05:43:42;;;;;;;10.30;4.40;;;;;;;16.14;58.65;101419.53;4933105;29;20392;-83
2023/06/14 05:46:07;;;;;;;9.50;5.18;;;;;;;16.16;57.79;101417.50;4933934;29;20050;-83
2023/06/14 05:48:34;;;;;;;12.35;4.88;;;;;;;16.25;56.25;101424.94;4949836;29;20145;-83
2023/06/14 05:51:00;;;;;;;7.63;4.70;;;;;;;16.28;56.75;101424.69;4951515;28;20093;-84
2023/06/14 05:53:26;;;;;;;7.18;4.72;;;;;;;16.37;55.86;101422.97;4951048;28;20435;-83
2023/06/14 05:55:54;;;;;;;9.95;5.20;;;;;;;16.47;56.02;101434.94;4949051;28;20094;-83
2023/06/14 05:58:21;;;;;;;12.75;4.82;;;;;;;16.48;57.51;101432.03;4948963;28;20407;-83
2023/06/14 06:00:47;;;;;;;8.82;4.80;;;;;;;16.52;55.42;101428.00;4948492;29;20403;-84
2023/06/14 06:03:13;;;;;;;12.07;5.20;;;;;;;16.60;56.58;101435.59;4950715;29;20043;-83
2023/06/14 06:05:39;;;;;;;11.27;4.88;;;;;;;16.68;54.47;101440.38;4951501;28;20030;-83
2023/06/14 06:08:04;;;;;;;8.07;4.93;;;;;;;16.75;54.69;101436.13;4946231;29;20523;-83
2023/06/14 06:10:29;;;;;;;8.98;4.47;;;;;;;16.83;55.58;101444.53;4947834;29;20102;-83
2023/06/14 06:12:55;;;;;;;7.00;5.13;;;;;;;16.88;55.07;101438.63;4949140;29;20082;-83
2023/06/14 06:15:20;;;;;;;13.45;5.05;;;;;;;16.94;55.37;101441.72;4950782;28;20119;-83
2023/06/14 06:17:46;;;;;;;15.60;5.80;;;;;;;17.00;55.24;101441.16;4948854;28;20444;-83
2023/06/14 06:20:12;;;;;;;8.77;5.03;;;;;;;17.07;55.43;101447.00;4951106;28;20049;-83
2023/06/14 06:22:38;;;;;;;9.23;4.20;;;;;;;17.15;54.09;101454.53;4949210;29;20043;-83
2023/06/14 06:25:03;;;;;;;9.07;4.72;;;;;;;17.18;55.05;101446.88;4950580;28;20340;-83
2023/06/14 06:27:29;;;;;;;16.80;5.15;;;;;;;17.22;55.39;101448.34;4949099;29;20449;-83
2023/06/14 06:29:54;;;;;;;10.48;5.15;;;;;;;17.29;54.31;101454.13;4950631;28;20094;-84
2023/06/14 06:32:20;;;;;;;10.60;4.32;;;;;;;17.31;55.53;101452.13;4949094;29;20403;-83
2023/06/14 06:34:46;;;;;;;10.07;4.50;;;;;;;17.37;54.92;101459.81;4948899;28;20043;-83
2023/06/14 06:37:11;;;;;;;7.30;4.15;;;;;;;17.45;56.62;101453.63;4950030;28;20102;-82
2023/06/14 06:39:36;;;;;;;8.82;4.03;;;;;;;17.49;53.90;101457.84;4949340;29;20106;-83
2023/06/14 06:42:02;;;;;;;12.98;4.60;;;;;;;17.61;52.67;101462.19;4964524;28;20353;-83
2023/06/14 06:44:34;;;;;;;14.25;4.65;;;;;;;17.71;53.40;101468.56;4965177;28;20513;-83
2023/06/14 06:47:00;;;;;;;12.05;4.22;;;;;;;17.77;52.58;101462.56;4963984;28;20063;-83
2023/06/14 06:49:27;;;;;;;6.22;4.60;;;;;;;17.87;52.58;101472.72;4950419;28;20023;-83
2023/06/14 06:52:03;;;;;;;7.68;4.55;;;;;;;17.97;53.11;101476.34;4949395;28;20046;-83
2023/06/14 06:54:29;;;;;;;7.45;4.30;;;;;;;18.04;52.35;101478.34;4965023;28;20584;-83
2023/06/14 06:56:54;;;;;;;8.35;4.43;;;;;;;18.08;52.39;101468.78;4954787;28;20035;-84
2023/06/14 06:59:20;;;;;;;13.25;4.50;;;;;;;18.21;51.77;101478.66;4966790;28;20039;-83
2023/06/14 07:01:46;;;;;;;8.55;3.72;;;;;;;18.25;51.66;101477.34;4949512;29;20413;-83
2023/06/14 07:04:12;;;;;;;11.73;4.82;;;;;;;18.38;51.67;101482.56;4964947;28;20075;-83
2023/06/14 07:06:38;;;;;;;6.93;4.57;;;;;;;18.43;50.54;101483.00;4949464;28;20497;-83
2023/06/14 07:09:06;;;;;;;7.20;4.40;;;;;;;18.51;51.80;101485.88;4949967;29;20043;-83
2023/06/14 07:11:32;;;;;;;10.65;3.95;;;;;;;18.52;50.71;101471.97;4947678;28;20066;-84
2023/06/14 07:13:57;;;;;;;7.05;4.50;;;;;;;18.68;51.15;101495.28;4948869;28;20795;-83
2023/06/14 07:16:23;;;;;;;6.05;4.28;;;;;;;18.74;52.17;101491.97;4948053;29;20030;-83
2023/06/14 07:18:49;;;;;;;10.15;4.50;;;;;;;18.86;51.33;101493.53;4950108;29;20039;-83
2023/06/14 07:21:14;;;;;;;11.90;4.53;;;;;;;18.98;50.67;101496.97;4963927;28;20035;-83
2023/06/14 07:23:40;;;;;;;9.23;4.35;;;;;;;19.08;50.07;101497.84;4948052;29;20062;-83
2023/06/14 07:26:06;;;;;;;12.93;4.10;;;;;;;19.17;50.05;101493.31;4949482;28;20051;-84
2023/06/14 07:28:31;;;;;;;8.60;4.00;;;;;;;19.25;50.00;101504.44;4948070;29;20097;-83
2023/06/14 07:30:57;;;;;;;9.27;4.00;;;;;;;19.31;49.53;101501.94;4949300;28;20034;-83
2023/06/14 07:33:22;;;;;;;9.50;4.53;;;;;;;19.38;50.06;101503.06;4947399;29;20031;-83
2023/06/14 07:35:49;;;;;;;7.13;3.83;;;;;;;19.47;50.17;101511.47;4948500;29;20356;-83
2023/06/14 07:38:14;;;;;;;8.00;4.20;;;;;;;19.51;48.46;101505.47;4949222;28;20054;-83
2023/06/14 07:40:39;;;;;;;5.80;3.72;;;;;;;19.60;50.15;101507.34;4948203;29;20118;-83
2023/06/14 07:43:05;;;;;;;10.73;3.70;;;;;;;19.70;50.42;101514.72;4948985;28;20071;-84
2023/06/14 07:45:31;;;;;;;704.45;56.63;;;;;;;19.80;49.28;101516.38;4948136;29;20044;-83
2023/06/14 07:47:56;;;;;;;31.35;5.43;;;;;;;19.90;48.13;101516.31;4947838;28;20045;-83
2023/06/14 07:50:21;;;;;;;16.80;4.65;;;;;;;20.01;49.41;101520.78;4932525;29;20201;-83
2023/06/14 07:52:48;;;;;;;9.30;3.95;;;;;;;20.10;48.90;101517.06;4948729;28;20070;-83
2023/06/14 07:55:15;;;;;;;9.00;3.40;;;;;;;20.23;47.03;101523.06;4947948;29;20046;-84
2023/06/14 07:57:40;;;;;;;8.50;3.45;;;;;;;20.32;46.62;101524.00;4930995;29;20034;-84
2023/06/14 08:00:06;;;;;;;12.95;3.97;;;;;;;20.49;45.54;101527.84;4949796;28;20091;-83
2023/06/14 08:02:37;;;;;;;8.23;3.20;;;;;;;20.56;45.30;101538.09;4948365;29;20031;-83
2023/06/14 08:05:03;;;;;;;8.98;3.92;;;;;;;20.66;45.16;101534.34;4948357;28;20050;-83
2023/06/14 08:07:28;;;;;;;6.85;3.33;;;;;;;20.83;45.84;101537.09;4947776;29;20067;-84
2023/06/14 08:09:55;;;;;;;6.75;3.30;;;;;;;21.15;46.20;101533.69;4948759;29;20498;-83
2023/06/14 08:12:20;;;;;;;10.52;3.38;;;;;;;21.51;44.88;101539.13;4948719;28;20015;-83
2023/06/14 08:14:46;;;;;;;6.93;3.33;;;;;;;21.85;43.27;101528.00;4948999;28;20494;-83
2023/06/14 08:17:11;;;;;;;8.70;3.30;;;;;;;22.60;42.26;101527.97;4949179;28;20067;-82
2023/06/14 08:19:37;;;;;;;7.13;3.10;;;;;;;22.92;40.33;101529.91;4948500;29;20043;-83
2023/06/14 08:22:03;;;;;;;9.57;3.13;;;;;;;23.24;39.91;101525.34;4962645;28;20395;-83
2023/06/14 08:24:29;;;;;;;4.45;2.97;;;;;;;23.70;38.83;101522.78;4953059;28;20495;-84
2023/06/14 08:26:54;;;;;;;6.43;3.28;;;;;;;24.16;37.01;101517.31;4950285;29;20043;-83
2023/06/14 08:29:20;;;;;;;3.97;2.60;;;;;;;24.40;36.67;101522.75;4950722;29;20050;-83
2023/06/14 08:31:47;;;;;;;6.80;2.85;;;;;;;24.60;36.82;101523.09;4966745;28;20062;-83
2023/06/14 08:34:12;;;;;;;4.63;2.70;;;;;;;24.82;35.30;101517.69;4967545;28;20129;-83
2023/06/14 08:36:37;;;;;;;6.68;2.92;;;;;;;25.20;36.01;101518.56;4951561;29;20431;-84
2023/06/14 08:39:03;;;;;;;3.90;2.55;;;;;;;25.38;35.27;101515.41;4951448;29;20107;-83
2023/06/14 08:41:29;;;;;;;6.97;2.95;;;;;;;25.58;35.37;101522.09;4950205;29;20044;-83
2023/06/14 08:43:55;;;;;;;6.15;3.05;;;;;;;26.02;33.95;101517.53;4952137;28;20049;-83
2023/06/14 08:46:22;;;;;;;7.85;2.60;;;;;;;26.45;34.51;101518.50;4952085;28;20098;-83
2023/06/14 08:48:52;;;;;;;9.48;3.22;;;;;;;26.54;32.81;101520.09;4967109;28;20055;-84
2023/06/14 08:51:22;;;;;;;6.45;2.92;;;;;;;26.56;31.62;101515.16;4951378;29;20036;-83
2023/06/14 08:53:57;;;;;;;5.82;3.47;;;;;;;26.34;33.24;101508.69;4951777;28;20038;-84
2023/06/14 08:56:30;;;;;;;6.15;2.65;;;;;;;26.23;33.58;101520.38;4953689;28;20043;-83
2023/06/14 08:58:57;;;;;;;4.47;2.70;;;;;;;26.35;31.88;101524.38;4969934;28;20046;-82
2023/06/14 09:01:23;;;;;;;5.18;2.35;;;;;;;26.63;30.56;101516.09;4962167;28;20516;-83
2023/06/14 09:03:50;;;;;;;5.75;2.22;;;;;;;27.05;32.85;101519.91;4952627;28;20047;-83
2023/06/14 09:06:18;;;;;;;5.78;2.22;;;;;;;27.35;31.54;101514.09;4952329;29;20039;-84
2023/06/14 09:08:46;;;;;;;10.65;2.58;;;;;;;27.79;30.59;101521.25;4951741;28;20090;-83
2023/06/14 09:11:18;;;;;;;3.88;2.20;;;;;;;27.83;30.34;101523.41;4951381;28;20039;-83
2023/06/14 09:13:48;;;;;;;14.18;3.15;;;;;;;27.62;29.28;101518.78;4951264;29;20038;-83
2023/06/14 09:16:14;;;;;;;7.18;2.63;;;;;;;28.08;29.56;101517.28;4951473;28;20050;-84
2023/06/14 09:18:47;;;;;;;6.20;2.38;;;;;;;28.32;30.28;101522.31;4967003;28;20392;-84
2023/06/14 09:21:13;;;;;;;4.47;1.98;;;;;;;28.54;29.81;101519.34;4951473;28;20066;-83
2023/06/14 09:23:47;;;;;;;6.07;2.50;;;;;;;28.70;28.42;101524.53;4951828;28;20046;-84
2023/06/14 09:26:15;;;;;;;22.48;3.03;;;;;;;28.65;26.06;101513.97;4949440;28;20138;-83
2023/06/14 09:28:44;;;;;;;6.55;1.90;;;;;;;28.53;26.51;101526.88;4951494;28;20047;-82
2023/06/14 09:31:15;;;;;;;3.75;1.95;;;;;;;28.46;27.26;101517.63;4965845;28;20555;-84
2023/06/14 09:33:47;;;;;;;3.72;1.80;;;;;;;28.43;26.78;101515.25;4966296;28;20143;-84
2023/06/14 09:36:16;;;;;;;4.93;1.40;;;;;;;28.52;25.77;101521.50;4951783;28;20431;-84
2023/06/14 09:38:41;;;;;;;1.67;1.15;;;;;;;28.45;24.53;101527.97;4951405;28;20039;-83
2023/06/14 09:41:06;;;;;;;2.20;1.15;;;;;;;28.71;25.71;101534.66;4950018;29;20035;-83
2023/06/14 09:43:33;;;;;;;1.38;1.17;;;;;;;28.78;26.10;101524.34;4949908;29;20031;-83
2023/06/14 09:46:00;;;;;;;3.63;1.23;;;;;;;29.10;26.17;101542.25;4949558;28;20090;-83
2023/06/14 09:48:26;;;;;;;4.70;1.40;;;;;;;28.91;24.37;101532.75;4949709;29;20570;-83
2023/06/14 09:50:52;;;;;;;2.40;1.15;;;;;;;28.63;23.81;101534.84;4934434;29;20071;-83
2023/06/14 09:53:21;;;;;;;5.70;1.50;;;;;;;28.42;23.35;101538.72;4949497;29;20147;-83
2023/06/14 09:55:50;;;;;;;2.70;1.73;;;;;;;28.24;25.73;101542.06;4949656;29;20125;-83
2023/06/14 09:58:19;;;;;;;2.80;1.30;;;;;;;28.78;25.32;101531.88;4964844;28;20038;-83
2023/06/14 10:00:47;;;;;;;3.17;1.40;;;;;;;28.68;22.73;101533.16;4949455;29;20471;-83
2023/06/14 10:03:16;;;;;;;4.60;1.33;;;;;;;29.03;26.55;101532.97;4965504;28;20114;-83
2023/06/14 10:05:45;;;;;;;3.40;1.70;;;;;;;29.31;24.07;101538.34;4949058;28;20043;-83
2023/06/14 10:08:17;;;;;;;5.30;1.63;;;;;;;29.42;25.21;101534.84;4950678;28;20617;-84
2023/06/14 10:10:43;;;;;;;5.45;1.65;;;;;;;29.42;23.93;101528.38;4948655;29;20074;-84
2023/06/14 10:13:10;;;;;;;3.20;1.75;;;;;;;29.27;25.09;101525.84;4950504;28;20091;-83
2023/06/14 10:15:42;;;;;;;2.55;1.48;;;;;;;29.14;24.18;101525.84;4950568;28;20031;-83
2023/06/14 10:18:22;;;;;;;5.82;2.00;;;;;;;29.25;26.81;101519.59;4965562;28;20066;-83
2023/06/14 10:21:13;;;;;;;7.75;1.90;;;;;;;29.44;25.13;101515.03;4949705;29;20126;-83
2023/06/14 10:23:42;;;;;;;2.17;1.50;;;;;;;29.48;24.46;101511.56;4949977;29;20039;-83
2023/06/14 10:26:08;;;;;;;5.80;2.00;;;;;;;29.73;27.39;101519.28;4950172;29;20081;-83
2023/06/14 10:28:37;;;;;;;4.82;1.70;;;;;;;30.06;25.76;101526.69;4950092;28;20047;-83
2023/06/14 10:31:09;;;;;;;10.52;2.63;;;;;;;30.17;25.35;101531.63;4949786;29;20050;-83
2023/06/14 10:33:56;;;;;;;5.75;1.92;;;;;;;30.18;23.81;101523.00;4950600;28;20435;-83
2023/06/14 10:36:21;;;;;;;5.30;1.85;;;;;;;30.31;24.87;101524.88;4950439;28;20042;-83
2023/06/14 10:38:57;;;;;;;2.85;1.80;;;;;;;30.08;23.15;101527.31;4950048;29;20137;-84
2023/06/14 10:41:22;;;;;;;7.57;2.15;;;;;;;29.60;24.20;101525.78;4949853;28;20075;-83
2023/06/14 10:43:48;;;;;;;2.83;1.70;;;;;;;29.64;24.05;101517.78;4964551;28;20114;-84
2023/06/14 10:46:18;;;;;;;10.82;1.98;;;;;;;29.64;23.34;101524.25;4949080;28;20385;-83
2023/06/14 10:48:44;;;;;;;3.83;1.98;;;;;;;29.77;25.69;101526.16;4965176;28;20125;-83
2023/06/14 10:51:20;;;;;;;5.13;1.75;;;;;;;29.40;24.32;101536.16;4964571;28;20035;-83
2023/06/14 10:53:49;;;;;;;6.78;1.77;;;;;;;29.47;23.46;101531.38;4948199;28;20455;-83
2023/06/14 10:56:32;;;;;;;3.53;2.03;;;;;;;29.84;24.64;101532.59;4964054;28;20023;-84
2023/06/14 10:58:58;;;;;;;5.78;1.95;;;;;;;29.86;24.01;101529.59;4948286;29;20039;-83
2023/06/14 11:01:35;;;;;;;4.72;1.90;;;;;;;29.49;24.88;101518.03;4949435;28;20047;-83
2023/06/14 11:04:08;;;;;;;8.93;2.50;;;;;;;29.89;25.48;101537.53;4948954;29;20043;-84
2023/06/14 11:06:49;;;;;;;4.25;1.98;;;;;;;30.06;24.05;101526.69;4964595;28;20399;-83
2023/06/14 11:09:27;;;;;;;2.95;1.55;;;;;;;30.15;23.34;101534.66;4948626;29;20050;-83
2023/06/14 11:11:56;;;;;;;6.47;1.88;;;;;;;30.40;25.94;101528.25;4947363;29;20491;-83
2023/06/14 11:14:21;;;;;;;6.30;1.85;;;;;;;30.19;23.15;101526.66;4964229;28;20035;-83
2023/06/14 11:16:50;;;;;;;4.07;1.80;;;;;;;30.08;22.87;101522.59;4928974;29;20031;-83
2023/06/14 11:19:17;;;;;;;3.90;1.90;;;;;;;30.62;25.98;101509.09;4945613;29;20424;-83
2023/06/14 11:21:42;;;;;;;4.88;1.75;;;;;;;30.96;24.06;101510.56;4932254;29;20050;-84